LGKZ/KZI METAR and TAF weather

Enter ICAO airport designator
Station Type Date Time Source
LGKZ METAR 2019/04/22 11:50 UTC NOAA

LGKZ 221150Z 10008KT 9999 FEW025 18/05 Q1019


Station Type Date Time Source
LGKZ Decoded METAR 2019/04/22 11:50 UTC NOAA

Kozani Airport , Greece (LGKZ) 40-18N 021-47E 627M
Apr 22, 2019 - 07:50 AM EDT / 2019.04.22 1150 UTC
Wind: from the E (100 degrees) at 9 MPH (8 KT):0
Visibility: greater than 7 mile(s):0
Sky conditions: mostly clear
Temperature: 64 F (18 C)
Dew Point: 41 F (5 C)
Relative Humidity: 42%
Pressure (altimeter): 30.09 in. Hg (1019 hPa)
ob: LGKZ 221150Z 10008KT 9999 FEW025 18/05 Q1019
cycle: 12

Station Type Date Time Source
LGKZ TAF UTC NOAA

Error!

Example: see airport list